Time;durP1;ratioP1;P1;durP2;ratioP2;P2;SDS_P1;SDS_P2;PMS_P1;PMS_P2;Temp;Humidity;BMP_temperature;BMP_pressure;BME280_temperature;BME280_humidity;BME280_pressure;Samples;Min_cycle;Max_cycle;Signal;HPM_P1;HPM_P2
2023/01/28 00:01:49;;;;;;;5.15;3.53;;;;;;;;;;5008224;28;20261;-50
2023/01/28 00:04:15;;;;;;;4.72;3.90;;;;;;;;;;5010987;28;20242;-50
2023/01/28 00:06:41;;;;;;;4.95;3.65;;;;;;;;;;5008194;28;20236;-50
2023/01/28 00:09:07;;;;;;;5.32;3.85;;;;;;;;;;5013336;28;20214;-50
2023/01/28 00:11:33;;;;;;;5.38;4.03;;;;;;;;;;5016329;28;20200;-50
2023/01/28 00:13:59;;;;;;;4.65;3.80;;;;;;;;;;5011389;28;20219;-50
2023/01/28 00:16:26;;;;;;;4.93;4.00;;;;;;;;;;5014715;28;20216;-50
2023/01/28 00:18:52;;;;;;;5.72;3.72;;;;;;;;;;5008412;28;20177;-50
2023/01/28 00:21:18;;;;;;;4.85;3.60;;;;;;;;;;5011962;28;20200;-50
2023/01/28 00:23:47;;;;;;;6.30;4.22;;;;;;;;;;5016696;28;20500;-49
2023/01/28 00:26:14;;;;;;;5.75;3.42;;;;;;;;;;5014164;28;20201;-49
2023/01/28 00:28:41;;;;;;;4.57;3.58;;;;;;;;;;5015318;28;20231;-49
2023/01/28 00:31:17;;;;;;;6.90;3.88;;;;;;;;;;5016821;28;20227;-49
2023/01/28 00:33:44;;;;;;;4.70;3.65;;;;;;;;;;5014654;28;20291;-49
2023/01/28 00:36:11;;;;;;;4.60;3.35;;;;;;;;;;5015541;28;20188;-49
2023/01/28 00:38:36;;;;;;;5.38;4.00;;;;;;;;;;5007075;28;20207;-50
2023/01/28 00:41:16;;;;;;;4.05;3.50;;;;;;;;;;5013162;28;20204;-50
2023/01/28 00:43:44;;;;;;;5.25;3.70;;;;;;;;;;5002988;28;20197;-50
2023/01/28 00:46:11;;;;;;;5.80;3.78;;;;;;;;;;5010503;28;20187;-50
2023/01/28 00:48:38;;;;;;;3.92;3.50;;;;;;;;;;5013494;28;20192;-50
2023/01/28 00:51:04;;;;;;;3.92;3.47;;;;;;;;;;5011777;28;20220;-50
2023/01/28 00:53:30;;;;;;;4.93;3.53;;;;;;;;;;5010273;28;20275;-49
2023/01/28 00:55:56;;;;;;;5.40;3.80;;;;;;;;;;5015374;28;20228;-50
2023/01/28 00:58:23;;;;;;;4.57;3.55;;;;;;;;;;5012154;28;20834;-50
2023/01/28 01:00:49;;;;;;;4.70;3.78;;;;;;;;;;5011523;28;20188;-50
2023/01/28 01:03:15;;;;;;;4.88;3.85;;;;;;;;;;5009835;28;20208;-50
2023/01/28 01:05:41;;;;;;;5.25;3.65;;;;;;;;;;5008537;28;22416;-50
2023/01/28 01:08:06;;;;;;;4.88;3.63;;;;;;;;;;5006481;28;20189;-50
2023/01/28 01:10:33;;;;;;;5.22;3.70;;;;;;;;;;5014562;28;20188;-50
2023/01/28 01:12:59;;;;;;;5.30;3.80;;;;;;;;;;5005270;28;20802;-50
2023/01/28 01:15:25;;;;;;;4.68;3.58;;;;;;;;;;5014500;28;20231;-50
2023/01/28 01:17:52;;;;;;;5.50;4.00;;;;;;;;;;5010571;28;20189;-50
2023/01/28 01:20:19;;;;;;;6.47;3.42;;;;;;;;;;5011758;28;20185;-50
2023/01/28 01:22:45;;;;;;;4.57;3.78;;;;;;;;;;5011434;28;20482;-50
2023/01/28 01:25:15;;;;;;;5.20;3.78;;;;;;;;;;5013307;28;20188;-50
2023/01/28 01:27:42;;;;;;;3.65;3.22;;;;;;;;;;5005476;28;20197;-50
2023/01/28 01:30:08;;;;;;;4.32;3.80;;;;;;;;;;5007017;28;20193;-50
2023/01/28 01:32:34;;;;;;;5.20;3.92;;;;;;;;;;5014084;28;20187;-50
2023/01/28 01:35:00;;;;;;;5.55;3.53;;;;;;;;;;5010262;28;20193;-50
2023/01/28 01:37:27;;;;;;;4.15;3.72;;;;;;;;;;5012186;28;20188;-50
2023/01/28 01:39:53;;;;;;;5.05;3.92;;;;;;;;;;5006532;28;20184;-50
2023/01/28 01:42:19;;;;;;;4.85;3.90;;;;;;;;;;5012845;28;20184;-49
2023/01/28 01:44:47;;;;;;;4.68;3.70;;;;;;;;;;5010177;28;20191;-49
2023/01/28 01:47:13;;;;;;;4.22;3.70;;;;;;;;;;5011267;28;20469;-49
2023/01/28 01:49:40;;;;;;;3.97;3.58;;;;;;;;;;5013996;28;20177;-49
2023/01/28 01:52:08;;;;;;;5.07;3.85;;;;;;;;;;5011334;28;20188;-49
2023/01/28 01:54:35;;;;;;;4.75;3.83;;;;;;;;;;5006375;28;20216;-49
2023/01/28 01:57:02;;;;;;;4.70;3.90;;;;;;;;;;5014588;28;20254;-49
2023/01/28 01:59:29;;;;;;;4.55;3.60;;;;;;;;;;5013730;28;20192;-49
2023/01/28 02:01:55;;;;;;;5.63;3.70;;;;;;;;;;5007836;28;20196;-49
2023/01/28 02:04:30;;;;;;;4.68;3.80;;;;;;;;;;5001444;28;20251;-49
2023/01/28 02:06:57;;;;;;;4.43;3.58;;;;;;;;;;5011824;28;20590;-50
2023/01/28 02:09:25;;;;;;;4.70;3.63;;;;;;;;;;5011373;28;20185;-50
2023/01/28 02:11:54;;;;;;;4.32;3.72;;;;;;;;;;5000464;28;20200;-49
2023/01/28 02:14:21;;;;;;;4.68;3.67;;;;;;;;;;5005701;28;20220;-49
2023/01/28 02:16:47;;;;;;;3.88;3.20;;;;;;;;;;5014794;28;20191;-50
2023/01/28 02:19:13;;;;;;;5.03;3.63;;;;;;;;;;5012033;28;20188;-49
2023/01/28 02:22:11;;;;;;;4.10;3.70;;;;;;;;;;5008352;28;20585;-49
2023/01/28 02:24:51;;;;;;;4.07;3.67;;;;;;;;;;4975451;28;20489;-49
2023/01/28 02:27:24;;;;;;;5.03;3.35;;;;;;;;;;5011561;28;20196;-50
2023/01/28 02:29:53;;;;;;;4.03;3.63;;;;;;;;;;5008589;28;20181;-50
2023/01/28 02:32:34;;;;;;;4.15;3.47;;;;;;;;;;5012264;28;20271;-49
2023/01/28 02:35:21;;;;;;;3.92;3.17;;;;;;;;;;5012779;28;20467;-50
2023/01/28 02:37:53;;;;;;;3.40;3.10;;;;;;;;;;5012143;28;20200;-50
2023/01/28 02:40:26;;;;;;;3.83;3.22;;;;;;;;;;5011920;28;20615;-50
2023/01/28 02:42:52;;;;;;;3.67;3.30;;;;;;;;;;5004930;28;20245;-50
2023/01/28 02:45:20;;;;;;;3.22;2.70;;;;;;;;;;4997793;28;20643;-50
2023/01/28 02:47:58;;;;;;;4.13;3.10;;;;;;;;;;5013794;28;20227;-50
2023/01/28 02:50:34;;;;;;;4.75;3.38;;;;;;;;;;5012258;28;20219;-49
2023/01/28 02:56:28;;;;;;;3.53;2.95;;;;;;;;;;5008003;28;20246;-50
2023/01/28 02:59:00;;;;;;;3.75;3.00;;;;;;;;;;5010168;28;20184;-50
2023/01/28 03:01:32;;;;;;;3.70;3.20;;;;;;;;;;5005167;28;20189;-50
2023/01/28 03:04:00;;;;;;;3.47;3.10;;;;;;;;;;5011644;28;20226;-50
2023/01/28 03:06:31;;;;;;;4.00;2.88;;;;;;;;;;5011441;28;20196;-49
2023/01/28 03:36:50;;;;;;;3.42;2.85;;;;;;;;;;5003397;28;20217;-50
2023/01/28 03:39:24;;;;;;;4.07;2.67;;;;;;;;;;5008645;28;20186;-50
2023/01/28 03:42:07;;;;;;;2.83;2.50;;;;;;;;;;5010385;28;20271;-50
2023/01/28 03:44:48;;;;;;;2.50;2.30;;;;;;;;;;5006930;28;20272;-49
2023/01/28 03:47:14;;;;;;;2.47;2.28;;;;;;;;;;5009297;28;20235;-49
2023/01/28 03:49:41;;;;;;;3.00;2.78;;;;;;;;;;5011307;28;20185;-49
2023/01/28 03:52:07;;;;;;;3.10;2.70;;;;;;;;;;5015751;28;20466;-49
2023/01/28 03:54:33;;;;;;;4.55;2.63;;;;;;;;;;5009042;28;20220;-50
2023/01/28 03:56:58;;;;;;;3.45;2.80;;;;;;;;;;5015920;28;20219;-50
2023/01/28 03:59:24;;;;;;;3.38;2.72;;;;;;;;;;5001792;28;20196;-50
2023/01/28 04:01:50;;;;;;;3.15;2.30;;;;;;;;;;5013079;28;20813;-50
2023/01/28 04:04:22;;;;;;;3.08;2.65;;;;;;;;;;5008617;28;20189;-50
2023/01/28 04:06:49;;;;;;;2.30;2.10;;;;;;;;;;5010525;28;20547;-50
2023/01/28 04:09:14;;;;;;;2.78;2.47;;;;;;;;;;5012229;28;20551;-50
2023/01/28 04:11:40;;;;;;;2.33;2.13;;;;;;;;;;5013355;28;20256;-50
2023/01/28 04:14:06;;;;;;;3.38;2.58;;;;;;;;;;5010394;28;20209;-49
2023/01/28 04:16:32;;;;;;;2.80;2.25;;;;;;;;;;5013446;28;20212;-49
2023/01/28 04:18:58;;;;;;;2.72;2.35;;;;;;;;;;5016031;28;20431;-49
2023/01/28 04:21:24;;;;;;;3.35;2.70;;;;;;;;;;5006127;28;20227;-49
2023/01/28 04:23:50;;;;;;;2.80;2.47;;;;;;;;;;5007547;28;20449;-49
2023/01/28 04:26:16;;;;;;;2.90;2.38;;;;;;;;;;5015800;28;20284;-49
2023/01/28 04:28:42;;;;;;;3.25;2.70;;;;;;;;;;5016550;28;20188;-49
2023/01/28 04:31:08;;;;;;;3.13;2.67;;;;;;;;;;5012616;28;20180;-49
2023/01/28 04:33:34;;;;;;;2.60;2.38;;;;;;;;;;5014294;28;20220;-49
2023/01/28 04:36:00;;;;;;;2.50;2.22;;;;;;;;;;5016321;28;20199;-49
2023/01/28 04:38:26;;;;;;;2.53;2.00;;;;;;;;;;5014760;28;20185;-49
2023/01/28 04:40:52;;;;;;;5.95;2.33;;;;;;;;;;5016770;28;20181;-49
2023/01/28 04:43:18;;;;;;;2.55;2.17;;;;;;;;;;5030061;28;20280;-49
2023/01/28 04:45:45;;;;;;;2.40;2.20;;;;;;;;;;5007987;28;20514;-49
2023/01/28 04:48:11;;;;;;;3.40;2.47;;;;;;;;;;5008956;28;20189;-49
2023/01/28 04:50:36;;;;;;;2.63;2.17;;;;;;;;;;5006855;28;20255;-49
2023/01/28 04:53:02;;;;;;;2.58;2.08;;;;;;;;;;5005253;28;20228;-49
2023/01/28 04:55:28;;;;;;;2.38;2.00;;;;;;;;;;5014188;28;20196;-49
2023/01/28 04:57:54;;;;;;;2.10;1.90;;;;;;;;;;5007039;28;20752;-49
2023/01/28 05:00:20;;;;;;;2.45;2.10;;;;;;;;;;5014493;28;20189;-49
2023/01/28 05:02:46;;;;;;;2.30;2.10;;;;;;;;;;5013284;28;20197;-49
2023/01/28 05:05:12;;;;;;;2.30;2.10;;;;;;;;;;5011836;28;20207;-49
2023/01/28 05:07:38;;;;;;;2.58;1.98;;;;;;;;;;5007619;28;21045;-49
2023/01/28 05:10:04;;;;;;;2.20;2.00;;;;;;;;;;5010550;28;20181;-49
2023/01/28 05:12:31;;;;;;;2.40;2.20;;;;;;;;;;5011809;28;20188;-49
2023/01/28 05:14:59;;;;;;;2.35;2.15;;;;;;;;;;5008924;28;20655;-49
2023/01/28 05:17:25;;;;;;;2.20;1.75;;;;;;;;;;5008739;28;20234;-49
2023/01/28 05:19:51;;;;;;;2.30;2.05;;;;;;;;;;5015272;28;20188;-49
2023/01/28 05:22:17;;;;;;;2.17;1.98;;;;;;;;;;5015546;28;20184;-49
2023/01/28 05:24:43;;;;;;;2.13;1.92;;;;;;;;;;5005774;28;20460;-49
2023/01/28 05:27:09;;;;;;;1.98;1.70;;;;;;;;;;5011055;28;20200;-49
2023/01/28 05:29:35;;;;;;;2.75;2.08;;;;;;;;;;5003365;28;20200;-49
2023/01/28 05:32:01;;;;;;;1.85;1.75;;;;;;;;;;5015254;28;20309;-49
2023/01/28 05:34:28;;;;;;;2.15;1.90;;;;;;;;;;5008791;28;20228;-49
2023/01/28 05:36:54;;;;;;;2.33;2.00;;;;;;;;;;5006956;28;20264;-50
2023/01/28 05:39:19;;;;;;;3.45;2.25;;;;;;;;;;5009571;28;20619;-49
2023/01/28 05:41:45;;;;;;;1.98;1.80;;;;;;;;;;5010976;28;20191;-49
2023/01/28 05:44:11;;;;;;;1.90;1.60;;;;;;;;;;5012637;28;20238;-49
2023/01/28 05:46:37;;;;;;;2.10;1.90;;;;;;;;;;5015103;28;20191;-50
2023/01/28 05:49:07;;;;;;;2.47;1.95;;;;;;;;;;5007541;28;20287;-49
2023/01/28 05:51:33;;;;;;;3.47;1.90;;;;;;;;;;5011982;28;20663;-49
2023/01/28 05:53:58;;;;;;;2.25;1.70;;;;;;;;;;5008621;28;20232;-49
2023/01/28 05:56:24;;;;;;;2.03;1.73;;;;;;;;;;5011486;28;20295;-49
2023/01/28 05:58:50;;;;;;;1.77;1.67;;;;;;;;;;5008459;28;20181;-50
2023/01/28 06:01:16;;;;;;;1.80;1.70;;;;;;;;;;5005614;28;20533;-50
2023/01/28 06:03:42;;;;;;;1.70;1.60;;;;;;;;;;5007028;28;20196;-50
2023/01/28 06:06:11;;;;;;;1.73;1.63;;;;;;;;;;4998702;28;20255;-49
2023/01/28 06:08:37;;;;;;;2.28;1.80;;;;;;;;;;5000902;28;20193;-49
2023/01/28 06:11:03;;;;;;;1.90;1.70;;;;;;;;;;5012038;28;20192;-49
2023/01/28 06:13:29;;;;;;;2.08;1.80;;;;;;;;;;5014089;28;20258;-49
2023/01/28 06:15:55;;;;;;;2.30;1.80;;;;;;;;;;5014765;28;20216;-49
2023/01/28 06:18:21;;;;;;;2.47;1.80;;;;;;;;;;5013398;28;20496;-49
2023/01/28 06:20:48;;;;;;;2.10;1.60;;;;;;;;;;5005652;28;20272;-50
2023/01/28 06:23:14;;;;;;;2.15;1.90;;;;;;;;;;5007010;28;20564;-50
2023/01/28 06:25:40;;;;;;;1.67;1.58;;;;;;;;;;5013582;28;20181;-49
2023/01/28 06:28:06;;;;;;;1.88;1.77;;;;;;;;;;5007995;28;20207;-50
2023/01/28 06:30:32;;;;;;;2.42;1.77;;;;;;;;;;5008234;28;20188;-50
2023/01/28 06:32:58;;;;;;;1.83;1.70;;;;;;;;;;5011921;28;20497;-49
2023/01/28 06:35:24;;;;;;;1.73;1.63;;;;;;;;;;5011276;28;20523;-49
2023/01/28 06:37:51;;;;;;;1.83;1.65;;;;;;;;;;5008580;28;20429;-49
2023/01/28 06:40:17;;;;;;;1.85;1.45;;;;;;;;;;5012963;28;20188;-49
2023/01/28 06:42:43;;;;;;;2.15;1.80;;;;;;;;;;5011306;28;20184;-49
2023/01/28 06:45:09;;;;;;;2.50;1.80;;;;;;;;;;5006002;28;20242;-49
2023/01/28 06:47:35;;;;;;;2.35;1.90;;;;;;;;;;5008397;28;20199;-49
2023/01/28 06:50:01;;;;;;;1.65;1.40;;;;;;;;;;5004339;28;20543;-49
2023/01/28 06:52:27;;;;;;;3.53;1.52;;;;;;;;;;5012637;28;20176;-49
2023/01/28 06:54:53;;;;;;;3.92;1.50;;;;;;;;;;5016232;28;20541;-49
2023/01/28 06:57:18;;;;;;;2.75;1.70;;;;;;;;;;5016353;28;20207;-49
2023/01/28 06:59:44;;;;;;;4.68;1.73;;;;;;;;;;5016488;28;20271;-49
2023/01/28 07:02:11;;;;;;;2.63;1.90;;;;;;;;;;5016314;28;20474;-49
2023/01/28 07:04:37;;;;;;;2.80;2.00;;;;;;;;;;5009905;28;20192;-50
2023/01/28 07:07:03;;;;;;;3.38;1.73;;;;;;;;;;5010649;28;20486;-50
2023/01/28 07:09:29;;;;;;;3.10;1.70;;;;;;;;;;5012900;28;20195;-49
2023/01/28 07:11:55;;;;;;;2.28;1.67;;;;;;;;;;5012691;28;20193;-49
2023/01/28 07:14:20;;;;;;;4.40;1.75;;;;;;;;;;5005845;28;20903;-50
2023/01/28 07:16:46;;;;;;;3.75;1.80;;;;;;;;;;5015697;28;20547;-50
2023/01/28 07:19:12;;;;;;;6.63;1.95;;;;;;;;;;5014232;28;20195;-50
2023/01/28 07:21:38;;;;;;;3.45;1.80;;;;;;;;;;5013389;28;20180;-50
2023/01/28 07:24:05;;;;;;;2.92;1.75;;;;;;;;;;5010999;28;20192;-50
2023/01/28 07:26:30;;;;;;;4.55;1.80;;;;;;;;;;5012868;28;20188;-50
2023/01/28 07:28:56;;;;;;;3.30;2.03;;;;;;;;;;5012828;28;20262;-49
2023/01/28 07:31:22;;;;;;;6.32;1.60;;;;;;;;;;5008449;28;20607;-49
2023/01/28 07:33:48;;;;;;;2.90;1.83;;;;;;;;;;5012500;28;20649;-49
2023/01/28 07:36:14;;;;;;;4.03;1.52;;;;;;;;;;5006328;28;20533;-49
2023/01/28 07:38:40;;;;;;;3.15;1.83;;;;;;;;;;5012131;28;20200;-49
2023/01/28 07:41:06;;;;;;;3.45;1.88;;;;;;;;;;5007822;28;20208;-49
2023/01/28 07:43:35;;;;;;;4.38;1.73;;;;;;;;;;5009475;28;20201;-49
2023/01/28 07:46:01;;;;;;;10.15;1.95;;;;;;;;;;5015640;28;20223;-49
2023/01/28 07:48:27;;;;;;;3.17;1.70;;;;;;;;;;5015089;28;20571;-49
2023/01/28 07:50:57;;;;;;;2.72;1.50;;;;;;;;;;5009968;28;20255;-49
2023/01/28 07:53:23;;;;;;;6.40;1.70;;;;;;;;;;5014019;28;20204;-49
2023/01/28 07:55:49;;;;;;;5.93;1.50;;;;;;;;;;5005609;28;20204;-49
2023/01/28 07:58:15;;;;;;;2.45;1.52;;;;;;;;;;5011214;28;20250;-49
2023/01/28 08:00:41;;;;;;;4.45;1.42;;;;;;;;;;5008393;28;20254;-49
2023/01/28 08:03:13;;;;;;;2.08;1.58;;;;;;;;;;5009292;28;20244;-49
2023/01/28 08:05:40;;;;;;;2.08;1.33;;;;;;;;;;5006576;28;20188;-49
2023/01/28 08:08:07;;;;;;;1.73;1.30;;;;;;;;;;5002164;28;20267;-49
2023/01/28 08:10:34;;;;;;;3.75;1.58;;;;;;;;;;5009158;28;20184;-49
2023/01/28 08:13:00;;;;;;;4.20;1.30;;;;;;;;;;5003687;28;20471;-48
2023/01/28 08:15:26;;;;;;;1.85;1.13;;;;;;;;;;5012778;28;20185;-49
2023/01/28 08:17:59;;;;;;;1.80;1.23;;;;;;;;;;5015275;28;20266;-49
2023/01/28 08:20:25;;;;;;;3.28;1.30;;;;;;;;;;5004169;28;20181;-49
2023/01/28 08:22:51;;;;;;;4.32;1.75;;;;;;;;;;5006771;28;20290;-49
2023/01/28 08:25:17;;;;;;;3.38;1.45;;;;;;;;;;5014755;28;20541;-49
2023/01/28 08:27:43;;;;;;;5.40;1.58;;;;;;;;;;5005085;28;20811;-49
2023/01/28 08:30:10;;;;;;;2.83;1.30;;;;;;;;;;4995605;28;20211;-49
2023/01/28 08:32:36;;;;;;;2.58;1.35;;;;;;;;;;5004852;28;20176;-50
2023/01/28 08:35:02;;;;;;;3.83;1.38;;;;;;;;;;5025497;28;20189;-49
2023/01/28 08:37:28;;;;;;;2.50;1.10;;;;;;;;;;5012152;28;20208;-47
2023/01/28 08:39:54;;;;;;;2.35;1.40;;;;;;;;;;5013364;28;20227;-49
2023/01/28 08:42:20;;;;;;;3.13;1.40;;;;;;;;;;5006494;28;20176;-47
2023/01/28 08:44:47;;;;;;;2.78;1.50;;;;;;;;;;5010737;28;20590;-49
2023/01/28 08:47:13;;;;;;;4.82;1.40;;;;;;;;;;5014245;28;20177;-49
2023/01/28 08:49:39;;;;;;;4.50;1.30;;;;;;;;;;5001757;28;20180;-49
2023/01/28 08:52:05;;;;;;;4.40;1.30;;;;;;;;;;5007328;28;20222;-49
2023/01/28 08:54:32;;;;;;;3.15;1.55;;;;;;;;;;5013930;28;20212;-48
2023/01/28 08:56:58;;;;;;;4.85;1.10;;;;;;;;;;5010425;28;20588;-49
2023/01/28 08:59:24;;;;;;;2.88;1.45;;;;;;;;;;5007444;28;20184;-49
2023/01/28 09:01:50;;;;;;;3.35;1.45;;;;;;;;;;5001403;28;20181;-49
2023/01/28 09:04:16;;;;;;;2.50;1.15;;;;;;;;;;5012046;28;20330;-49
2023/01/28 09:06:42;;;;;;;2.35;1.23;;;;;;;;;;5014420;28;20292;-48
2023/01/28 09:09:08;;;;;;;4.93;1.30;;;;;;;;;;5011860;28;20263;-48
2023/01/28 09:11:34;;;;;;;4.47;1.77;;;;;;;;;;5012206;28;20481;-48
2023/01/28 09:14:00;;;;;;;3.30;1.38;;;;;;;;;;5012569;28;20220;-48
2023/01/28 09:16:26;;;;;;;3.88;1.63;;;;;;;;;;5010370;28;20552;-49
2023/01/28 09:18:53;;;;;;;2.47;1.20;;;;;;;;;;5009468;28;20247;-49
2023/01/28 09:21:19;;;;;;;2.25;1.20;;;;;;;;;;5009841;28;20196;-49
2023/01/28 09:23:45;;;;;;;2.53;1.20;;;;;;;;;;5007744;28;20185;-49
2023/01/28 09:26:11;;;;;;;3.58;1.35;;;;;;;;;;5013111;28;20249;-46
2023/01/28 09:28:38;;;;;;;3.45;1.45;;;;;;;;;;5012129;28;20192;-49
2023/01/28 09:31:05;;;;;;;2.45;1.33;;;;;;;;;;5009874;28;20192;-49
2023/01/28 09:33:32;;;;;;;1.63;1.23;;;;;;;;;;5002643;28;20262;-47
2023/01/28 09:36:02;;;;;;;1.27;1.02;;;;;;;;;;5012291;28;20180;-48
2023/01/28 09:38:31;;;;;;;2.25;1.15;;;;;;;;;;5002877;28;20188;-48
2023/01/28 09:40:58;;;;;;;2.10;1.30;;;;;;;;;;5012946;28;20215;-49
2023/01/28 09:43:31;;;;;;;1.23;1.10;;;;;;;;;;5003348;28;20392;-49
2023/01/28 09:45:58;;;;;;;1.52;1.20;;;;;;;;;;5011571;28;20195;-49
2023/01/28 09:48:29;;;;;;;1.13;1.02;;;;;;;;;;5011583;28;20195;-49
2023/01/28 09:50:55;;;;;;;3.10;1.30;;;;;;;;;;5003579;28;20188;-49
2023/01/28 09:53:23;;;;;;;2.45;1.30;;;;;;;;;;5009355;28;20205;-49
2023/01/28 09:55:56;;;;;;;2.15;1.20;;;;;;;;;;5009992;28;20231;-46
2023/01/28 09:58:22;;;;;;;2.50;1.13;;;;;;;;;;5010598;28;20238;-47
2023/01/28 10:01:07;;;;;;;1.90;1.17;;;;;;;;;;5011442;28;20180;-47
2023/01/28 10:03:36;;;;;;;1.92;1.23;;;;;;;;;;4999919;28;20535;-47
2023/01/28 10:06:09;;;;;;;2.85;1.10;;;;;;;;;;5003974;28;20180;-48
2023/01/28 10:08:49;;;;;;;2.28;1.20;;;;;;;;;;4999344;28;20192;-47
2023/01/28 10:11:32;;;;;;;1.92;1.23;;;;;;;;;;5002471;28;20298;-47
2023/01/28 10:14:13;;;;;;;1.67;1.15;;;;;;;;;;5011569;28;20200;-47
2023/01/28 10:16:44;;;;;;;1.88;1.30;;;;;;;;;;5012767;28;20180;-47
2023/01/28 10:19:16;;;;;;;1.52;1.40;;;;;;;;;;5012168;28;20202;-47
2023/01/28 10:21:47;;;;;;;2.42;1.30;;;;;;;;;;5002724;28;20192;-47
2023/01/28 10:24:12;;;;;;;1.85;1.10;;;;;;;;;;5009992;28;20207;-47
2023/01/28 10:26:39;;;;;;;2.50;1.40;;;;;;;;;;5001631;28;20577;-47
2023/01/28 10:29:18;;;;;;;1.20;1.08;;;;;;;;;;5004472;28;20207;-47
2023/01/28 10:32:14;;;;;;;4.20;1.17;;;;;;;;;;5004335;28;20185;-47
2023/01/28 10:34:40;;;;;;;1.92;1.27;;;;;;;;;;4984498;28;20262;-48
2023/01/28 10:37:06;;;;;;;1.35;1.05;;;;;;;;;;5001956;28;20267;-48
2023/01/28 10:39:33;;;;;;;2.35;1.00;;;;;;;;;;5007607;28;20342;-48
2023/01/28 10:41:59;;;;;;;2.67;1.20;;;;;;;;;;5004386;28;20200;-48
2023/01/28 10:44:34;;;;;;;1.20;1.10;;;;;;;;;;5005305;28;20192;-48
2023/01/28 10:47:02;;;;;;;2.40;1.25;;;;;;;;;;5011857;28;20202;-48
2023/01/28 10:49:29;;;;;;;1.65;1.25;;;;;;;;;;5010149;28;20199;-48
2023/01/28 10:51:55;;;;;;;1.77;1.13;;;;;;;;;;5008874;28;20185;-48
2023/01/28 10:54:23;;;;;;;1.23;1.10;;;;;;;;;;5003868;28;20262;-48
2023/01/28 10:56:51;;;;;;;2.15;1.30;;;;;;;;;;5009325;28;20254;-48
2023/01/28 10:59:27;;;;;;;1.52;1.20;;;;;;;;;;5011024;28;20203;-48
2023/01/28 11:01:55;;;;;;;1.13;1.02;;;;;;;;;;5007291;28;20319;-48
2023/01/28 11:04:29;;;;;;;1.70;1.30;;;;;;;;;;5009794;28;20192;-48
2023/01/28 11:06:58;;;;;;;1.08;1.05;;;;;;;;;;5011765;28;20181;-47
2023/01/28 11:09:25;;;;;;;1.15;1.00;;;;;;;;;;5010251;28;20192;-48
2023/01/28 11:11:51;;;;;;;1.45;1.15;;;;;;;;;;5006032;28;20189;-48
2023/01/28 11:14:21;;;;;;;1.50;1.20;;;;;;;;;;5006724;28;20212;-48
2023/01/28 11:16:48;;;;;;;1.83;1.20;;;;;;;;;;5009965;28;20172;-48
2023/01/28 11:19:14;;;;;;;1.40;1.10;;;;;;;;;;5007479;28;20200;-48
2023/01/28 11:21:41;;;;;;;1.65;1.10;;;;;;;;;;5007092;28;20209;-48
2023/01/28 11:24:15;;;;;;;1.40;1.20;;;;;;;;;;5006303;28;20188;-48
2023/01/28 11:26:45;;;;;;;1.20;0.98;;;;;;;;;;5007133;28;20196;-48
2023/01/28 11:29:22;;;;;;;2.65;1.17;;;;;;;;;;5006796;28;20307;-48
2023/01/28 11:31:49;;;;;;;3.33;1.13;;;;;;;;;;5009775;28;20230;-48
2023/01/28 11:34:16;;;;;;;1.27;1.17;;;;;;;;;;5008351;28;20583;-48
2023/01/28 11:36:49;;;;;;;1.95;1.23;;;;;;;;;;5012467;28;20188;-48
2023/01/28 11:39:33;;;;;;;1.05;1.00;;;;;;;;;;5011649;28;20185;-48
2023/01/28 11:42:10;;;;;;;1.20;1.10;;;;;;;;;;5013051;28;20180;-49
2023/01/28 11:44:36;;;;;;;1.00;0.88;;;;;;;;;;5009742;28;20320;-48
2023/01/28 11:47:26;;;;;;;2.42;1.20;;;;;;;;;;5013939;28;20254;-48
2023/01/28 11:50:15;;;;;;;1.13;0.90;;;;;;;;;;5011577;28;20213;-48
2023/01/28 11:52:53;;;;;;;1.35;1.00;;;;;;;;;;5002262;28;20188;-48
2023/01/28 11:55:27;;;;;;;1.30;1.20;;;;;;;;;;5002852;28;20210;-48
2023/01/28 11:57:53;;;;;;;1.30;1.05;;;;;;;;;;5007157;28;20282;-48
2023/01/28 12:00:38;;;;;;;1.35;1.13;;;;;;;;;;5008485;28;20185;-48
2023/01/28 12:03:14;;;;;;;2.15;1.08;;;;;;;;;;5009332;28;20479;-49
2023/01/28 12:05:44;;;;;;;1.10;0.93;;;;;;;;;;5009572;28;20191;-48
2023/01/28 12:08:17;;;;;;;1.52;1.30;;;;;;;;;;5003989;28;20219;-48
2023/01/28 12:10:52;;;;;;;1.35;1.05;;;;;;;;;;5010298;28;20215;-49
2023/01/28 12:13:29;;;;;;;1.27;1.10;;;;;;;;;;5015568;28;20191;-48
2023/01/28 12:16:06;;;;;;;0.95;0.90;;;;;;;;;;5012865;28;20184;-48
2023/01/28 12:18:52;;;;;;;1.30;1.20;;;;;;;;;;5010113;28;20210;-49
2023/01/28 12:21:30;;;;;;;1.80;1.10;;;;;;;;;;5003211;28;20196;-49
2023/01/28 12:24:15;;;;;;;1.10;1.00;;;;;;;;;;4993616;28;20177;-48
2023/01/28 12:26:47;;;;;;;1.20;1.10;;;;;;;;;;5004796;28;20276;-49
2023/01/28 12:29:19;;;;;;;1.70;1.30;;;;;;;;;;5007677;28;20240;-49
2023/01/28 12:31:54;;;;;;;1.85;1.05;;;;;;;;;;5010624;28;20224;-49
2023/01/28 12:34:32;;;;;;;2.03;1.17;;;;;;;;;;5013326;28;20212;-48
2023/01/28 12:37:04;;;;;;;2.05;1.25;;;;;;;;;;5013306;28;20176;-48
2023/01/28 12:39:30;;;;;;;7.57;1.40;;;;;;;;;;5014582;28;20300;-47
2023/01/28 12:42:09;;;;;;;9.85;2.03;;;;;;;;;;5013450;28;20203;-47
2023/01/28 12:44:40;;;;;;;12.73;2.17;;;;;;;;;;5003968;28;20251;-48
2023/01/28 12:47:08;;;;;;;14.75;1.90;;;;;;;;;;5008251;28;20200;-48
2023/01/28 12:49:36;;;;;;;15.90;2.53;;;;;;;;;;5012054;28;20275;-47
2023/01/28 12:52:08;;;;;;;15.48;2.42;;;;;;;;;;5011926;28;20193;-47
2023/01/28 12:54:40;;;;;;;11.00;1.98;;;;;;;;;;5005321;28;20618;-47
2023/01/28 12:57:08;;;;;;;14.43;2.92;;;;;;;;;;5005912;28;20291;-47
2023/01/28 12:59:39;;;;;;;11.63;2.42;;;;;;;;;;5001366;28;20195;-48
2023/01/28 13:02:10;;;;;;;9.10;2.35;;;;;;;;;;5005900;28;20192;-47
2023/01/28 13:04:55;;;;;;;7.78;2.33;;;;;;;;;;5007642;28;20272;-48
2023/01/28 13:07:27;;;;;;;5.00;2.08;;;;;;;;;;5005182;28;20266;-48
2023/01/28 13:10:05;;;;;;;6.90;2.53;;;;;;;;;;5009377;28;20196;-49
2023/01/28 13:12:32;;;;;;;10.82;2.50;;;;;;;;;;5008830;28;20184;-48
2023/01/28 13:14:59;;;;;;;10.20;2.22;;;;;;;;;;5004876;28;20300;-48
2023/01/28 13:17:27;;;;;;;13.18;2.50;;;;;;;;;;5028543;28;20279;-48
2023/01/28 13:19:53;;;;;;;6.32;2.33;;;;;;;;;;5004614;28;20264;-48
2023/01/28 13:22:30;;;;;;;4.68;2.20;;;;;;;;;;5011654;28;20238;-47
2023/01/28 13:24:58;;;;;;;8.27;2.45;;;;;;;;;;5012005;28;20212;-48
2023/01/28 13:27:25;;;;;;;5.00;2.10;;;;;;;;;;5012341;28;20206;-48
2023/01/28 13:30:02;;;;;;;6.68;2.22;;;;;;;;;;5010688;28;20180;-48
2023/01/28 13:32:30;;;;;;;8.20;2.40;;;;;;;;;;5011185;28;20176;-47
2023/01/28 13:34:57;;;;;;;5.32;2.10;;;;;;;;;;5015307;28;20200;-48
2023/01/28 13:37:32;;;;;;;5.93;2.00;;;;;;;;;;5006364;28;20442;-48
2023/01/28 13:40:13;;;;;;;5.57;2.22;;;;;;;;;;5011437;28;20183;-48
2023/01/28 13:42:39;;;;;;;2.80;2.00;;;;;;;;;;5008255;28;20200;-48
2023/01/28 13:45:15;;;;;;;7.50;2.30;;;;;;;;;;5003036;28;20204;-48
2023/01/28 13:47:44;;;;;;;3.08;1.98;;;;;;;;;;5009037;28;20307;-48
2023/01/28 13:50:15;;;;;;;3.22;1.60;;;;;;;;;;5009721;28;20195;-48
2023/01/28 13:52:44;;;;;;;4.68;1.80;;;;;;;;;;5007946;28;20189;-48
2023/01/28 13:55:10;;;;;;;7.82;2.47;;;;;;;;;;5010909;28;20235;-47
2023/01/28 13:57:47;;;;;;;6.07;2.22;;;;;;;;;;5012849;28;20227;-47
2023/01/28 14:00:20;;;;;;;7.78;3.97;;;;;;;;;;5006490;28;20263;-48
2023/01/28 14:03:05;;;;;;;7.90;5.60;;;;;;;;;;5005546;28;20181;-48
2023/01/28 14:05:46;;;;;;;7.65;5.75;;;;;;;;;;5007642;28;20268;-48
2023/01/28 14:08:31;;;;;;;7.90;6.05;;;;;;;;;;5001918;28;20184;-48
2023/01/28 14:10:57;;;;;;;9.73;6.07;;;;;;;;;;5008525;28;20184;-48
2023/01/28 14:13:30;;;;;;;11.55;6.70;;;;;;;;;;4998319;28;20204;-48
2023/01/28 14:16:09;;;;;;;7.88;6.60;;;;;;;;;;5009084;28;20533;-48
2023/01/28 14:18:36;;;;;;;10.85;6.40;;;;;;;;;;5006163;28;20249;-47
2023/01/28 14:21:03;;;;;;;10.50;5.85;;;;;;;;;;5009177;28;20204;-47
2023/01/28 14:23:31;;;;;;;8.38;5.78;;;;;;;;;;5014153;28;20661;-47
2023/01/28 14:26:09;;;;;;;8.48;6.38;;;;;;;;;;5002178;28;20187;-47
2023/01/28 14:28:46;;;;;;;7.82;5.68;;;;;;;;;;5004669;28;20195;-47
2023/01/28 14:31:24;;;;;;;5.63;5.10;;;;;;;;;;5005369;28;20574;-47
2023/01/28 14:33:50;;;;;;;7.72;5.22;;;;;;;;;;5008277;28;20475;-48
2023/01/28 14:36:16;;;;;;;7.75;5.07;;;;;;;;;;5010351;28;20176;-48
2023/01/28 14:38:43;;;;;;;7.07;5.28;;;;;;;;;;5012783;28;20202;-48
2023/01/28 14:41:10;;;;;;;6.05;5.07;;;;;;;;;;5011980;28;20185;-48
2023/01/28 14:43:38;;;;;;;6.82;4.88;;;;;;;;;;5007945;28;20185;-48
2023/01/28 14:46:04;;;;;;;7.15;4.70;;;;;;;;;;5012782;28;20184;-48
2023/01/28 14:48:37;;;;;;;7.20;4.93;;;;;;;;;;5008053;28;20227;-47
2023/01/28 14:51:03;;;;;;;6.97;4.25;;;;;;;;;;5006159;28;20351;-48
2023/01/28 14:53:29;;;;;;;4.93;3.97;;;;;;;;;;5006367;28;20315;-48
2023/01/28 14:56:14;;;;;;;12.32;4.47;;;;;;;;;;5013123;28;20268;-48
2023/01/28 14:58:43;;;;;;;6.07;4.25;;;;;;;;;;5005989;28;20268;-48
2023/01/28 15:01:19;;;;;;;4.38;3.85;;;;;;;;;;5011223;28;20254;-48
2023/01/28 15:03:45;;;;;;;6.13;4.07;;;;;;;;;;5006933;28;20188;-48
2023/01/28 15:06:16;;;;;;;5.13;3.65;;;;;;;;;;5007693;28;20230;-48
2023/01/28 15:08:42;;;;;;;5.15;3.83;;;;;;;;;;5004771;28;20185;-48
2023/01/28 15:11:11;;;;;;;5.40;4.35;;;;;;;;;;5002421;28;20207;-48
2023/01/28 15:13:38;;;;;;;6.28;4.28;;;;;;;;;;5016211;28;20205;-48
2023/01/28 15:16:04;;;;;;;4.50;3.63;;;;;;;;;;5016868;28;20195;-48
2023/01/28 15:18:33;;;;;;;5.00;4.22;;;;;;;;;;5016208;28;20302;-48
2023/01/28 15:21:00;;;;;;;7.15;4.78;;;;;;;;;;5014646;28;20434;-48
2023/01/28 15:23:36;;;;;;;6.82;5.00;;;;;;;;;;5007674;28;20526;-48
2023/01/28 15:26:19;;;;;;;7.45;5.57;;;;;;;;;;5013881;28;20271;-48